Skip Navigation Links
NOAA logo - Click to go to the NOAA homepage
NOAA's National Weather Service
Alaska Aviation Weather Unit
  NWS logo - Click to go to the NWS homepage
Left Navbar Graphic     02 AKDT = 10 GMT

   
NOAA is celebrating 200 years of science, service, and stewardship. Visit the NOAA 200th celebration Web site to learn more.
USA.gov is the U.S. Government's official Web portal to all Federal, state and local government Web resources and services.
Facebook
NWS on Facebook

AAWU Home :: Display TAF Add Bookmark
TAF PAOR 270520Z 2706/2806 VRB03KT P6SM FEW060 SCT120
     FM270800 VRB03KT P6SM VCSH SCT060 BKN100
     FM272200 32004KT 6SM -SN BR BKN045 OVC060=
METAR PAOR 270453Z 00000KT 10SM SCT120 M14/M18 A2966=

METAR PAOR 270553Z 00000KT 10SM FEW120 M17/M19 A2965=

METAR PAOR 270653Z 00000KT 10SM FEW120 M18/M21 A2965=

METAR PAOR 270753Z 00000KT 10SM FEW120 M20/M23 A2965=

METAR PAOR 270853Z 00000KT 10SM FEW130 M21/M23 A2964=

METAR PAOR 270953Z 00000KT 10SM SCT110 BKN130 M20/M22 A2963=


NOAA's National Weather Service
Alaska Aviation Weather Unit
6930 Sand Lake Road
Anchorage, AK 99502-1845
Disclaimer
Credits
Glossary
Privacy Policy
About Us
Career Opportunities
Contact AAWU Internet Services Site last modified: April, 17th 2012